createdAt,value
2017-07-07T00:00:05.245Z,1008.19
2017-07-07T00:00:54.333Z,1008.15
2017-07-07T00:01:54.863Z,1008.08
2017-07-07T00:02:48.397Z,1008.03
2017-07-07T00:03:42.423Z,1008.00
2017-07-07T00:04:37.523Z,1008.07
2017-07-07T00:05:37.536Z,1008.07
2017-07-07T00:06:37.665Z,1008.09
2017-07-07T00:07:31.854Z,1008.09
2017-07-07T00:08:31.720Z,1008.09
2017-07-07T00:09:26.674Z,1008.10
2017-07-07T00:10:21.719Z,1008.12
2017-07-07T00:11:22.722Z,1008.12
2017-07-07T00:12:23.056Z,1008.07
2017-07-07T00:13:22.873Z,1008.04
2017-07-07T00:14:17.886Z,1008.00
2017-07-07T00:15:11.818Z,1008.02
2017-07-07T00:16:12.127Z,1008.00
2017-07-07T00:17:07.144Z,1007.99
2017-07-07T00:18:07.064Z,1007.97
2017-07-07T00:19:01.057Z,1007.91
2017-07-07T00:20:02.110Z,1007.88
2017-07-07T00:21:08.438Z,1007.85
2017-07-07T00:22:02.129Z,1007.81
2017-07-07T00:23:02.241Z,1007.70
2017-07-07T00:23:56.294Z,1007.70
2017-07-07T00:24:51.410Z,1007.62
2017-07-07T00:25:46.484Z,1007.59
2017-07-07T00:26:41.534Z,1007.55
2017-07-07T00:27:47.425Z,1007.54
2017-07-07T00:28:41.436Z,1007.54
2017-07-07T00:29:41.458Z,1007.53
2017-07-07T00:30:36.510Z,1007.51
2017-07-07T00:31:36.661Z,1007.51
2017-07-07T00:32:30.545Z,1007.53
2017-07-07T00:33:30.686Z,1007.51
2017-07-07T00:34:25.731Z,1007.50
2017-07-07T00:35:20.756Z,1007.52
2017-07-07T00:36:20.736Z,1007.55
2017-07-07T00:37:15.794Z,1007.57
2017-07-07T00:38:11.020Z,1007.55
2017-07-07T00:39:10.889Z,1007.56
2017-07-07T00:40:05.848Z,1007.51
2017-07-07T00:41:01.324Z,1007.47
2017-07-07T00:42:07.293Z,1007.44
2017-07-07T00:43:01.135Z,1007.42
2017-07-07T00:44:01.011Z,1007.38
2017-07-07T00:44:56.206Z,1007.36
2017-07-07T00:45:56.079Z,1007.32
2017-07-07T00:46:56.632Z,1007.29
2017-07-07T00:48:03.275Z,1007.26
2017-07-07T00:49:03.251Z,1007.24
2017-07-07T00:50:09.251Z,1007.23
2017-07-07T00:51:04.305Z,1007.24
2017-07-07T00:52:04.305Z,1007.23
2017-07-07T00:52:59.374Z,1007.21
2017-07-07T00:53:54.496Z,1007.16
2017-07-07T00:54:54.478Z,1007.16
2017-07-07T00:55:49.425Z,1007.17
2017-07-07T00:56:44.486Z,1007.15
2017-07-07T00:57:45.658Z,1007.19
2017-07-07T00:58:46.683Z,1007.17
2017-07-07T00:59:42.053Z,1007.17
2017-07-07T01:00:41.809Z,1007.16
2017-07-07T01:01:41.697Z,1007.13
2017-07-07T01:02:42.202Z,1007.17
2017-07-07T01:03:36.838Z,1007.18
2017-07-07T01:04:32.298Z,1007.19
2017-07-07T01:05:31.931Z,1007.19
2017-07-07T01:06:26.969Z,1007.22
2017-07-07T01:07:22.389Z,1007.26
2017-07-07T01:08:22.037Z,1007.25
2017-07-07T01:09:17.006Z,1007.25
2017-07-07T01:10:17.074Z,1007.22
2017-07-07T01:11:12.330Z,1007.21
2017-07-07T01:12:06.092Z,1007.29
2017-07-07T01:13:07.247Z,1007.33
2017-07-07T01:13:56.306Z,1007.38
2017-07-07T01:14:51.224Z,1007.40
2017-07-07T01:15:45.331Z,1007.41
2017-07-07T01:16:33.768Z,1007.41
2017-07-07T01:17:21.465Z,1007.39
2017-07-07T01:18:10.545Z,1007.36
2017-07-07T01:19:05.489Z,1007.37
2017-07-07T01:19:53.831Z,1007.36
2017-07-07T01:20:42.930Z,1007.36
2017-07-07T01:21:30.613Z,1007.34
2017-07-07T01:22:19.597Z,1007.36
2017-07-07T01:23:14.739Z,1007.40
2017-07-07T01:24:02.811Z,1007.39
2017-07-07T01:24:51.851Z,1007.42
2017-07-07T01:25:46.859Z,1007.46
2017-07-07T01:26:34.859Z,1007.47
2017-07-07T01:27:24.290Z,1007.46
2017-07-07T01:28:12.159Z,1007.48
2017-07-07T01:29:06.367Z,1007.45
2017-07-07T01:30:06.093Z,1007.44
2017-07-07T01:31:06.047Z,1007.49
2017-07-07T01:32:01.204Z,1007.46
2017-07-07T01:32:55.285Z,1007.47
2017-07-07T01:33:55.122Z,1007.51
2017-07-07T01:34:50.302Z,1007.52
2017-07-07T01:35:39.356Z,1007.52
2017-07-07T01:36:27.332Z,1007.54
2017-07-07T01:37:15.390Z,1007.59
2017-07-07T01:38:15.487Z,1007.63
2017-07-07T01:39:09.674Z,1007.62
2017-07-07T01:40:09.442Z,1007.60
2017-07-07T01:41:04.577Z,1007.66
2017-07-07T01:41:59.539Z,1007.72
2017-07-07T01:43:00.592Z,1007.73
2017-07-07T01:44:00.645Z,1007.83
2017-07-07T01:44:49.695Z,1007.86
2017-07-07T01:45:38.674Z,1007.90
2017-07-07T01:46:33.273Z,1007.90
2017-07-07T01:47:27.753Z,1007.87
2017-07-07T01:48:21.823Z,1007.86
2017-07-07T01:49:17.280Z,1007.87
2017-07-07T01:50:10.935Z,1007.82
2017-07-07T01:51:05.952Z,1007.81
2017-07-07T01:52:00.041Z,1007.90
2017-07-07T01:53:06.006Z,1007.90
2017-07-07T01:54:06.046Z,1007.92
2017-07-07T01:55:00.094Z,1007.91
2017-07-07T01:56:01.090Z,1007.91
2017-07-07T01:57:01.428Z,1007.89
2017-07-07T01:57:56.286Z,1007.88
2017-07-07T01:58:56.275Z,1007.88
2017-07-07T01:59:50.456Z,1007.87
2017-07-07T02:00:50.376Z,1007.77
2017-07-07T02:01:44.606Z,1007.60
2017-07-07T02:02:39.485Z,1007.49
2017-07-07T02:03:39.460Z,1007.40
2017-07-07T02:04:34.415Z,1007.29
2017-07-07T02:05:28.615Z,1007.32
2017-07-07T02:06:22.625Z,1007.32
2017-07-07T02:07:17.675Z,1007.35
2017-07-07T02:08:12.589Z,1007.41
2017-07-07T02:09:07.758Z,1007.41
2017-07-07T02:09:56.785Z,1007.30
2017-07-07T02:10:56.834Z,1007.24
2017-07-07T02:11:45.959Z,1007.26
2017-07-07T02:12:34.988Z,1007.21
2017-07-07T02:13:22.878Z,1007.14
2017-07-07T02:14:12.147Z,1007.05
2017-07-07T02:15:00.061Z,1007.03
2017-07-07T02:15:48.090Z,1007.10
2017-07-07T02:16:36.088Z,1006.99
2017-07-07T02:17:25.491Z,1006.92
2017-07-07T02:18:13.201Z,1006.85
2017-07-07T02:19:07.729Z,1006.78
2017-07-07T02:19:55.295Z,1006.72
2017-07-07T02:20:55.377Z,1006.77
2017-07-07T02:21:43.405Z,1006.99
2017-07-07T02:22:32.501Z,1007.16
2017-07-07T02:23:21.419Z,1007.21
2017-07-07T02:24:09.520Z,1007.26
2017-07-07T02:25:03.500Z,1007.33
2017-07-07T02:25:57.561Z,1007.41
2017-07-07T02:26:46.669Z,1007.47
2017-07-07T02:27:35.717Z,1007.48
2017-07-07T02:28:30.166Z,1007.49
2017-07-07T02:29:24.740Z,1007.41
2017-07-07T02:30:25.779Z,1007.50
2017-07-07T02:31:25.962Z,1007.52
2017-07-07T02:32:26.057Z,1007.58
2017-07-07T02:33:20.004Z,1007.55
2017-07-07T02:34:19.978Z,1007.54
2017-07-07T02:35:20.078Z,1007.43
2017-07-07T02:36:19.974Z,1007.44
2017-07-07T02:37:14.084Z,1007.41
2017-07-07T02:38:14.076Z,1007.50
2017-07-07T02:39:14.177Z,1007.52
2017-07-07T02:40:08.207Z,1007.49
2017-07-07T02:41:08.155Z,1007.47
2017-07-07T02:42:03.597Z,1007.40
2017-07-07T02:42:58.286Z,1007.39
2017-07-07T02:43:58.324Z,1007.34
2017-07-07T02:44:53.382Z,1007.29
2017-07-07T02:45:53.453Z,1007.15
2017-07-07T02:46:53.434Z,1007.15
2017-07-07T02:47:53.502Z,1007.26
2017-07-07T02:48:47.450Z,1007.39
2017-07-07T02:49:35.627Z,1007.45
2017-07-07T02:50:23.605Z,1007.43
2017-07-07T02:51:11.603Z,1007.38
2017-07-07T02:52:05.674Z,1007.35
2017-07-07T02:52:54.659Z,1007.40
2017-07-07T02:53:48.769Z,1007.41
2017-07-07T02:54:43.764Z,1007.49
2017-07-07T02:55:43.869Z,1007.49
2017-07-07T02:56:43.923Z,1007.49
2017-07-07T02:57:37.934Z,1007.58
2017-07-07T02:58:26.143Z,1007.67
2017-07-07T02:59:14.089Z,1007.74
2017-07-07T03:00:02.068Z,1007.80
2017-07-07T03:00:50.230Z,1007.82
2017-07-07T03:01:44.219Z,1007.81
2017-07-07T03:02:39.183Z,1007.84
2017-07-07T03:03:34.280Z,1007.82
2017-07-07T03:04:35.277Z,1007.81
2017-07-07T03:05:35.220Z,1007.77
2017-07-07T03:06:35.365Z,1007.72
2017-07-07T03:07:30.387Z,1007.70
2017-07-07T03:08:24.361Z,1007.72
2017-07-07T03:09:24.477Z,1007.73
2017-07-07T03:10:19.568Z,1007.74
2017-07-07T03:11:14.483Z,1007.73
2017-07-07T03:12:14.990Z,1007.73
2017-07-07T03:13:09.590Z,1007.69
2017-07-07T03:14:04.671Z,1007.73
2017-07-07T03:15:04.682Z,1007.80
2017-07-07T03:15:59.691Z,1007.75
2017-07-07T03:16:54.783Z,1007.72
2017-07-07T03:17:48.921Z,1007.73
2017-07-07T03:18:48.868Z,1007.72
2017-07-07T03:19:43.931Z,1007.69
2017-07-07T03:20:38.905Z,1007.69
2017-07-07T03:21:39.038Z,1007.70
2017-07-07T03:22:34.359Z,1007.70
2017-07-07T03:23:34.136Z,1007.70
2017-07-07T03:24:35.056Z,1007.72
2017-07-07T03:25:35.082Z,1007.68
2017-07-07T03:26:35.126Z,1007.72
2017-07-07T03:27:35.224Z,1007.73
2017-07-07T03:28:35.368Z,1007.74
2017-07-07T03:29:35.257Z,1007.72
2017-07-07T03:30:41.251Z,1007.68
2017-07-07T03:31:36.327Z,1007.67
2017-07-07T03:32:30.644Z,1007.70
2017-07-07T03:33:30.787Z,1007.67
2017-07-07T03:34:25.531Z,1007.65
2017-07-07T03:35:20.474Z,1007.60
2017-07-07T03:36:21.527Z,1007.55
2017-07-07T03:37:27.622Z,1007.47
2017-07-07T03:38:21.681Z,1007.42
2017-07-07T03:39:27.729Z,1007.29
2017-07-07T03:40:21.757Z,1007.27
2017-07-07T03:41:22.726Z,1007.17
2017-07-07T03:42:17.732Z,1007.10
2017-07-07T03:43:11.754Z,1007.00
2017-07-07T03:44:12.864Z,1006.90
2017-07-07T03:45:13.007Z,1006.74
2017-07-07T03:46:06.909Z,1006.58
2017-07-07T03:47:06.979Z,1006.31
2017-07-07T03:48:07.114Z,1006.03
2017-07-07T03:49:07.082Z,1005.84
2017-07-07T03:49:56.109Z,1005.69
2017-07-07T03:50:57.135Z,1005.55
2017-07-07T03:51:51.155Z,1005.65
2017-07-07T03:52:40.186Z,1005.77
2017-07-07T03:53:34.218Z,1005.92
2017-07-07T03:54:29.541Z,1006.03
2017-07-07T03:55:23.259Z,1006.06
2017-07-07T03:56:17.361Z,1006.06
2017-07-07T03:57:12.436Z,1006.01
2017-07-07T03:58:06.389Z,1005.98
2017-07-07T03:59:01.423Z,1005.98
2017-07-07T04:00:01.596Z,1006.03
2017-07-07T04:00:56.588Z,1006.07
2017-07-07T04:01:51.906Z,1006.13
2017-07-07T04:02:40.709Z,1006.17
2017-07-07T04:03:29.770Z,1006.21
2017-07-07T04:04:17.704Z,1006.33
2017-07-07T04:05:06.778Z,1006.44
2017-07-07T04:05:54.842Z,1006.60
2017-07-07T04:06:43.268Z,1006.67
2017-07-07T04:07:32.204Z,1006.67
2017-07-07T04:08:26.053Z,1006.68
2017-07-07T04:09:20.946Z,1006.66
2017-07-07T04:10:21.108Z,1006.66
2017-07-07T04:11:10.126Z,1006.64
2017-07-07T04:11:59.617Z,1006.69
2017-07-07T04:12:59.212Z,1006.66
2017-07-07T04:13:54.223Z,1006.60
2017-07-07T04:14:48.313Z,1006.54
2017-07-07T04:15:43.239Z,1006.53
2017-07-07T04:16:32.369Z,1006.51
2017-07-07T04:17:27.361Z,1006.52
2017-07-07T04:18:22.585Z,1006.54
2017-07-07T04:19:11.857Z,1006.58
2017-07-07T04:19:59.598Z,1006.62
2017-07-07T04:20:53.557Z,1006.63
2017-07-07T04:21:47.694Z,1006.64
2017-07-07T04:22:41.671Z,1006.62
2017-07-07T04:23:36.652Z,1006.64
2017-07-07T04:24:31.093Z,1006.64
2017-07-07T04:25:24.713Z,1006.67
2017-07-07T04:26:18.790Z,1006.71
2017-07-07T04:27:07.916Z,1006.70
2017-07-07T04:27:55.902Z,1006.71
2017-07-07T04:28:45.182Z,1006.71
2017-07-07T04:29:33.049Z,1006.68
2017-07-07T04:30:27.026Z,1006.69
2017-07-07T04:31:27.120Z,1006.71
2017-07-07T04:32:22.024Z,1006.70
2017-07-07T04:33:16.162Z,1006.64
2017-07-07T04:34:11.416Z,1006.63
2017-07-07T04:35:05.278Z,1006.65
2017-07-07T04:35:54.217Z,1006.68
2017-07-07T04:36:43.341Z,1006.67
2017-07-07T04:37:31.464Z,1006.72
2017-07-07T04:38:20.371Z,1006.68
2017-07-07T04:39:08.569Z,1006.63
2017-07-07T04:39:56.624Z,1006.67
2017-07-07T04:40:45.686Z,1006.66
2017-07-07T04:41:33.618Z,1006.68
2017-07-07T04:42:22.705Z,1006.69
2017-07-07T04:43:16.746Z,1006.77
2017-07-07T04:44:11.834Z,1006.77
2017-07-07T04:44:59.986Z,1006.76
2017-07-07T04:45:47.816Z,1006.64
2017-07-07T04:46:36.894Z,1006.69
2017-07-07T04:47:25.295Z,1006.73
2017-07-07T04:48:12.954Z,1006.78
2017-07-07T04:49:02.053Z,1006.78
2017-07-07T04:49:50.114Z,1006.74
2017-07-07T04:50:38.156Z,1006.69
2017-07-07T04:51:27.397Z,1006.71
2017-07-07T04:52:15.617Z,1006.81
2017-07-07T04:53:04.652Z,1006.82
2017-07-07T04:53:52.705Z,1006.89
2017-07-07T04:54:40.633Z,1006.88
2017-07-07T04:55:29.791Z,1006.88
2017-07-07T04:56:17.777Z,1006.82
2017-07-07T04:57:05.943Z,1006.76
2017-07-07T04:57:55.001Z,1006.78
2017-07-07T04:58:42.952Z,1006.79
2017-07-07T04:59:31.970Z,1006.83
2017-07-07T05:00:20.049Z,1006.77
2017-07-07T05:01:08.068Z,1006.77
2017-07-07T05:01:57.230Z,1006.75
2017-07-07T05:02:45.221Z,1006.82
2017-07-07T05:03:33.284Z,1006.89
2017-07-07T05:04:21.352Z,1007.01
2017-07-07T05:05:15.475Z,1007.08
2017-07-07T05:06:04.527Z,1007.01
2017-07-07T05:06:52.478Z,1006.93
2017-07-07T05:07:41.517Z,1006.90
2017-07-07T05:08:29.518Z,1006.91
2017-07-07T05:09:18.524Z,1006.91
2017-07-07T05:10:06.613Z,1006.98
2017-07-07T05:11:01.584Z,1007.07
2017-07-07T05:12:01.873Z,1007.17
2017-07-07T05:12:49.773Z,1007.12
2017-07-07T05:13:38.478Z,1007.15
2017-07-07T05:14:27.993Z,1007.10
2017-07-07T05:15:15.614Z,1007.15
2017-07-07T05:16:04.729Z,1007.17
2017-07-07T05:16:53.805Z,1007.17
2017-07-07T05:17:42.819Z,1007.14
2017-07-07T05:18:38.272Z,1007.22
2017-07-07T05:19:37.870Z,1007.19
2017-07-07T05:20:26.382Z,1007.16
2017-07-07T05:21:15.071Z,1007.18
2017-07-07T05:22:16.129Z,1007.17
2017-07-07T05:23:04.107Z,1007.25
2017-07-07T05:23:58.199Z,1007.23
2017-07-07T05:24:52.595Z,1007.27
2017-07-07T05:25:40.587Z,1007.27
2017-07-07T05:26:40.327Z,1007.27
2017-07-07T05:27:29.362Z,1007.23
2017-07-07T05:28:23.588Z,1007.24
2017-07-07T05:29:17.530Z,1007.19
2017-07-07T05:30:06.804Z,1007.18
2017-07-07T05:31:01.647Z,1007.14
2017-07-07T05:31:55.691Z,1007.23
2017-07-07T05:32:43.730Z,1007.21
2017-07-07T05:33:33.184Z,1007.19
2017-07-07T05:34:27.888Z,1007.19
2017-07-07T05:35:22.303Z,1007.22
2017-07-07T05:36:10.902Z,1007.22
2017-07-07T05:37:11.344Z,1007.25
2017-07-07T05:38:05.114Z,1007.19
2017-07-07T05:38:54.044Z,1007.21
2017-07-07T05:39:54.283Z,1007.24
2017-07-07T05:40:54.580Z,1007.32
2017-07-07T05:41:49.527Z,1007.33
2017-07-07T05:42:49.653Z,1007.39
2017-07-07T05:43:49.733Z,1007.42
2017-07-07T05:44:43.725Z,1007.44
2017-07-07T05:45:43.787Z,1007.41
2017-07-07T05:46:38.830Z,1007.34
2017-07-07T05:47:33.834Z,1007.30
2017-07-07T05:48:22.867Z,1007.30
2017-07-07T05:49:10.796Z,1007.38
2017-07-07T05:49:59.025Z,1007.28
2017-07-07T05:50:47.102Z,1007.29
2017-07-07T05:51:36.100Z,1007.28
2017-07-07T05:52:24.138Z,1007.32
2017-07-07T05:53:12.512Z,1007.31
2017-07-07T05:54:00.962Z,1007.34
2017-07-07T05:54:55.410Z,1007.29
2017-07-07T05:55:50.014Z,1007.33
2017-07-07T05:56:39.081Z,1007.29
2017-07-07T05:57:27.142Z,1007.40
2017-07-07T05:58:15.202Z,1007.47
2017-07-07T05:59:15.392Z,1007.39
2017-07-07T06:00:16.915Z,1007.40
2017-07-07T06:01:22.363Z,1007.40
2017-07-07T06:02:23.653Z,1007.37
2017-07-07T06:03:23.581Z,1007.40
2017-07-07T06:04:23.866Z,1007.43
2017-07-07T06:05:29.821Z,1007.45
2017-07-07T06:06:30.077Z,1007.45
2017-07-07T06:07:24.197Z,1007.44
2017-07-07T06:08:18.907Z,1007.45
2017-07-07T06:09:19.401Z,1007.47
2017-07-07T06:10:13.373Z,1007.45
2017-07-07T06:11:08.166Z,1007.47
2017-07-07T06:12:08.624Z,1007.46
2017-07-07T06:13:02.224Z,1007.46
2017-07-07T06:13:57.532Z,1007.37
2017-07-07T06:14:57.412Z,1007.42
2017-07-07T06:15:51.812Z,1007.40
2017-07-07T06:16:46.766Z,1007.38
2017-07-07T06:17:46.899Z,1007.39
2017-07-07T06:18:47.139Z,1007.40
2017-07-07T06:19:41.096Z,1007.43
2017-07-07T06:20:41.269Z,1007.35
2017-07-07T06:21:42.306Z,1007.42
2017-07-07T06:22:37.368Z,1007.28
2017-07-07T06:23:32.379Z,1007.27
2017-07-07T06:24:32.473Z,1007.35
2017-07-07T06:25:32.580Z,1007.32
2017-07-07T06:26:21.704Z,1007.30
2017-07-07T06:27:21.718Z,1007.38
2017-07-07T06:28:21.773Z,1007.41
2017-07-07T06:29:09.831Z,1007.41
2017-07-07T06:29:58.885Z,1007.35
2017-07-07T06:30:47.985Z,1007.34
2017-07-07T06:31:36.061Z,1007.37
2017-07-07T06:32:31.241Z,1007.34
2017-07-07T06:33:25.416Z,1007.36
2017-07-07T06:34:20.369Z,1007.35
2017-07-07T06:35:09.408Z,1007.30
2017-07-07T06:35:57.463Z,1007.28
2017-07-07T06:36:51.571Z,1007.29
2017-07-07T06:37:40.626Z,1007.27
2017-07-07T06:38:28.681Z,1007.27
2017-07-07T06:39:16.755Z,1007.30
2017-07-07T06:40:10.984Z,1007.34
2017-07-07T06:41:04.979Z,1007.33
2017-07-07T06:41:59.054Z,1007.38
2017-07-07T06:42:47.049Z,1007.36
2017-07-07T06:43:42.151Z,1007.36
2017-07-07T06:44:30.330Z,1007.38
2017-07-07T06:45:25.427Z,1007.39
2017-07-07T06:46:14.467Z,1007.41
2017-07-07T06:47:08.563Z,1007.41
2017-07-07T06:48:03.569Z,1007.38
2017-07-07T06:48:52.660Z,1007.39
2017-07-07T06:49:47.763Z,1007.39
2017-07-07T06:50:47.826Z,1007.35
2017-07-07T06:51:47.922Z,1007.32
2017-07-07T06:52:41.920Z,1007.29
2017-07-07T06:53:31.070Z,1007.31
2017-07-07T06:54:25.204Z,1007.28
2017-07-07T06:55:20.152Z,1007.26
2017-07-07T06:56:15.324Z,1007.25
2017-07-07T06:57:09.500Z,1007.30
2017-07-07T06:58:03.442Z,1007.28
2017-07-07T06:58:57.682Z,1007.33
2017-07-07T06:59:57.639Z,1007.27
2017-07-07T07:00:52.710Z,1007.20
2017-07-07T07:01:47.850Z,1007.12
2017-07-07T07:02:35.871Z,1007.26
2017-07-07T07:03:29.940Z,1007.26
2017-07-07T07:04:18.049Z,1007.25
2017-07-07T07:05:12.180Z,1007.18
2017-07-07T07:06:07.168Z,1007.25
2017-07-07T07:07:01.490Z,1007.27
2017-07-07T07:07:56.333Z,1007.26
2017-07-07T07:08:45.476Z,1007.27
2017-07-07T07:09:39.507Z,1007.20
2017-07-07T07:10:28.669Z,1007.25
2017-07-07T07:11:22.632Z,1007.22
2017-07-07T07:12:16.914Z,1007.27
2017-07-07T07:13:05.775Z,1007.23
2017-07-07T07:13:59.911Z,1007.29
2017-07-07T07:14:49.047Z,1007.30
2017-07-07T07:15:44.090Z,1007.33
2017-07-07T07:16:38.174Z,1007.30
2017-07-07T07:17:32.221Z,1007.31
2017-07-07T07:18:26.276Z,1007.38
2017-07-07T07:19:26.404Z,1007.32
2017-07-07T07:20:21.501Z,1007.30
2017-07-07T07:21:21.609Z,1007.28
2017-07-07T07:22:21.642Z,1007.22
2017-07-07T07:23:22.757Z,1007.32
2017-07-07T07:24:22.851Z,1007.28
2017-07-07T07:25:28.885Z,1007.30
2017-07-07T07:26:23.028Z,1007.26
2017-07-07T07:27:17.043Z,1007.34
2017-07-07T07:28:11.104Z,1007.33
2017-07-07T07:28:59.224Z,1007.35
2017-07-07T07:29:59.356Z,1007.38
2017-07-07T07:30:59.437Z,1007.44
2017-07-07T07:31:53.474Z,1007.52
2017-07-07T07:32:48.542Z,1007.53
2017-07-07T07:33:37.724Z,1007.56
2017-07-07T07:34:37.745Z,1007.63
2017-07-07T07:35:37.843Z,1007.53
2017-07-07T07:36:32.928Z,1007.51
2017-07-07T07:37:27.074Z,1007.64
2017-07-07T07:38:21.039Z,1007.50
2017-07-07T07:39:21.183Z,1007.72
2017-07-07T07:40:16.211Z,1007.72
2017-07-07T07:41:10.228Z,1007.81
2017-07-07T07:41:58.455Z,1007.79
2017-07-07T07:42:46.345Z,1007.79
2017-07-07T07:43:35.554Z,1007.82
2017-07-07T07:44:24.574Z,1007.83
2017-07-07T07:45:18.735Z,1007.73
2017-07-07T07:46:12.876Z,1007.77
2017-07-07T07:47:13.880Z,1007.72
2017-07-07T07:48:08.954Z,1007.54
2017-07-07T07:48:57.996Z,1007.52
2017-07-07T07:49:53.115Z,1007.67
2017-07-07T07:50:47.090Z,1007.69
2017-07-07T07:51:48.244Z,1007.68
2017-07-07T07:52:37.361Z,1007.71
2017-07-07T07:53:26.446Z,1007.71
2017-07-07T07:54:15.509Z,1007.70
2017-07-07T07:55:04.593Z,1007.69
2017-07-07T07:55:53.641Z,1007.64
2017-07-07T07:56:47.770Z,1007.68
2017-07-07T07:57:35.824Z,1007.69
2017-07-07T07:58:29.948Z,1007.71
2017-07-07T07:59:24.061Z,1007.76
2017-07-07T08:00:19.115Z,1007.78
2017-07-07T08:01:13.247Z,1007.85
2017-07-07T08:02:08.340Z,1007.94
2017-07-07T08:02:57.415Z,1007.98
2017-07-07T08:03:45.527Z,1007.95
2017-07-07T08:04:45.543Z,1007.93
2017-07-07T08:05:34.585Z,1007.87
2017-07-07T08:06:22.759Z,1007.83
2017-07-07T08:07:16.895Z,1007.80
2017-07-07T08:08:05.946Z,1007.72
2017-07-07T08:08:54.963Z,1007.66
2017-07-07T08:09:49.056Z,1007.65
2017-07-07T08:10:44.113Z,1007.64
2017-07-07T08:11:38.259Z,1007.69
2017-07-07T08:12:32.307Z,1007.70
2017-07-07T08:13:20.434Z,1007.64
2017-07-07T08:14:14.470Z,1007.56
2017-07-07T08:15:14.498Z,1007.63
2017-07-07T08:16:08.616Z,1007.61
2017-07-07T08:17:09.957Z,1007.58
2017-07-07T08:18:04.773Z,1007.58
2017-07-07T08:18:58.937Z,1007.53
2017-07-07T08:19:47.981Z,1007.57
2017-07-07T08:20:37.032Z,1007.61
2017-07-07T08:21:37.232Z,1007.58
2017-07-07T08:22:26.448Z,1007.57
2017-07-07T08:23:15.295Z,1007.57
2017-07-07T08:24:04.438Z,1007.52
2017-07-07T08:24:53.545Z,1007.49
2017-07-07T08:25:41.647Z,1007.46
2017-07-07T08:26:36.648Z,1007.53
2017-07-07T08:27:30.759Z,1007.51
2017-07-07T08:28:25.834Z,1007.52
2017-07-07T08:29:19.910Z,1007.52
2017-07-07T08:30:15.040Z,1007.55
2017-07-07T08:31:03.130Z,1007.51
2017-07-07T08:31:52.357Z,1007.45
2017-07-07T08:32:47.294Z,1007.49
2017-07-07T08:33:36.391Z,1007.53
2017-07-07T08:34:31.474Z,1007.43
2017-07-07T08:35:25.511Z,1007.42
2017-07-07T08:36:14.575Z,1007.43
2017-07-07T08:37:08.815Z,1007.44
2017-07-07T08:37:57.820Z,1007.40
2017-07-07T08:38:51.880Z,1007.40
2017-07-07T08:39:40.917Z,1007.39
2017-07-07T08:40:30.338Z,1007.44
2017-07-07T08:41:30.114Z,1007.48
2017-07-07T08:42:30.290Z,1007.45
2017-07-07T08:43:31.300Z,1007.43
2017-07-07T08:44:31.378Z,1007.41
2017-07-07T08:45:31.441Z,1007.38
2017-07-07T08:46:25.548Z,1007.35
2017-07-07T08:47:14.630Z,1007.40
2017-07-07T08:48:08.635Z,1007.40
2017-07-07T08:49:02.967Z,1007.46
2017-07-07T08:49:57.917Z,1007.48
2017-07-07T08:50:58.978Z,1007.50
2017-07-07T08:51:53.921Z,1007.50
2017-07-07T08:52:49.156Z,1007.53
2017-07-07T08:53:37.270Z,1007.51
2017-07-07T08:54:26.221Z,1007.47
2017-07-07T08:55:26.492Z,1007.42
2017-07-07T08:56:20.482Z,1007.47
2017-07-07T08:57:15.531Z,1007.45
2017-07-07T08:58:09.639Z,1007.46
2017-07-07T08:59:03.646Z,1007.42
2017-07-07T08:59:53.058Z,1007.41
2017-07-07T09:00:46.991Z,1007.36
2017-07-07T09:01:41.097Z,1007.47
2017-07-07T09:02:30.157Z,1007.42
2017-07-07T09:03:24.123Z,1007.41
2017-07-07T09:04:13.306Z,1007.43
2017-07-07T09:05:08.457Z,1007.40
2017-07-07T09:06:02.347Z,1007.49
2017-07-07T09:06:56.557Z,1007.53
2017-07-07T09:07:51.526Z,1007.59
2017-07-07T09:08:45.577Z,1007.55
2017-07-07T09:09:34.685Z,1007.61
2017-07-07T09:10:23.807Z,1007.59
2017-07-07T09:11:12.873Z,1007.54
2017-07-07T09:12:14.026Z,1007.61
2017-07-07T09:13:02.083Z,1007.58
2017-07-07T09:13:51.630Z,1007.63
2017-07-07T09:14:46.262Z,1007.44
2017-07-07T09:15:35.407Z,1007.67
2017-07-07T09:16:36.323Z,1007.65
2017-07-07T09:17:36.525Z,1007.71
2017-07-07T09:18:31.597Z,1007.80
2017-07-07T09:19:20.662Z,1007.68
2017-07-07T09:20:14.742Z,1007.51
2017-07-07T09:21:03.782Z,1007.66
2017-07-07T09:21:57.887Z,1007.59
2017-07-07T09:22:52.057Z,1007.54
2017-07-07T09:23:46.149Z,1007.57
2017-07-07T09:24:41.176Z,1007.55
2017-07-07T09:25:35.298Z,1007.53
2017-07-07T09:26:30.353Z,1007.57
2017-07-07T09:27:19.434Z,1007.52
2017-07-07T09:28:13.518Z,1007.53
2017-07-07T09:29:13.622Z,1007.58
2017-07-07T09:30:08.678Z,1007.62
2017-07-07T09:31:02.931Z,1007.55
2017-07-07T09:31:57.904Z,1007.55
2017-07-07T09:32:52.999Z,1007.82
2017-07-07T09:33:41.053Z,1007.79
2017-07-07T09:34:41.065Z,1007.68
2017-07-07T09:35:41.205Z,1007.56
2017-07-07T09:36:36.293Z,1007.59
2017-07-07T09:37:30.493Z,1007.65
2017-07-07T09:38:19.532Z,1007.63
2017-07-07T09:39:13.603Z,1007.61
2017-07-07T09:40:02.670Z,1007.58
2017-07-07T09:40:56.752Z,1007.56
2017-07-07T09:41:51.789Z,1007.53
2017-07-07T09:42:45.906Z,1007.55
2017-07-07T09:43:39.978Z,1007.72
2017-07-07T09:44:34.008Z,1007.81
2017-07-07T09:45:29.185Z,1007.85
2017-07-07T09:46:17.355Z,1007.80
2017-07-07T09:47:12.425Z,1007.71
2017-07-07T09:48:12.676Z,1007.72
2017-07-07T09:49:01.456Z,1007.66
2017-07-07T09:49:56.569Z,1007.44
2017-07-07T09:50:57.607Z,1007.63
2017-07-07T09:51:57.677Z,1007.61
2017-07-07T09:52:57.794Z,1007.67
2017-07-07T09:53:51.811Z,1007.71
2017-07-07T09:54:39.961Z,1007.62
2017-07-07T09:55:33.983Z,1007.65
2017-07-07T09:56:29.204Z,1007.64
2017-07-07T09:57:18.298Z,1007.66
2017-07-07T09:58:12.352Z,1007.56
2017-07-07T09:59:00.384Z,1007.43
2017-07-07T09:59:55.369Z,1007.52
2017-07-07T10:00:55.575Z,1007.60
2017-07-07T10:01:55.706Z,1007.95
2017-07-07T10:02:55.639Z,1007.95
2017-07-07T10:03:55.791Z,1007.58
2017-07-07T10:04:50.933Z,1007.51
2017-07-07T10:05:39.848Z,1007.52
2017-07-07T10:06:29.011Z,1007.66
2017-07-07T10:07:18.161Z,1007.78
2017-07-07T10:08:12.243Z,1007.46
2017-07-07T10:09:06.306Z,1007.41
2017-07-07T10:10:00.422Z,1007.48
2017-07-07T10:10:49.394Z,1007.69
2017-07-07T10:11:43.474Z,1007.60
2017-07-07T10:12:38.649Z,1007.62
2017-07-07T10:13:32.634Z,1007.61
2017-07-07T10:14:32.742Z,1008.03
2017-07-07T10:15:21.845Z,1007.93
2017-07-07T10:16:21.901Z,1007.85
2017-07-07T10:17:22.069Z,1007.82
2017-07-07T10:18:17.078Z,1007.60
2017-07-07T10:19:11.209Z,1007.50
2017-07-07T10:20:05.366Z,1007.46
2017-07-07T10:20:53.378Z,1007.48
2017-07-07T10:21:42.363Z,1007.71
2017-07-07T10:22:37.463Z,1007.81
2017-07-07T10:23:32.635Z,1007.77
2017-07-07T10:24:21.707Z,1007.89
2017-07-07T10:25:15.724Z,1007.85
2017-07-07T10:26:04.857Z,1007.79
2017-07-07T10:27:04.901Z,1007.76
2017-07-07T10:27:59.051Z,1007.90
2017-07-07T10:28:53.231Z,1007.78
2017-07-07T10:29:47.166Z,1007.78
2017-07-07T10:30:36.273Z,1007.66
2017-07-07T10:31:25.307Z,1007.62
2017-07-07T10:32:19.495Z,1007.51
2017-07-07T10:33:14.570Z,1007.51
2017-07-07T10:34:09.537Z,1007.47
2017-07-07T10:35:03.743Z,1007.39
2017-07-07T10:35:58.735Z,1007.43
2017-07-07T10:36:53.847Z,1007.51
2017-07-07T10:37:48.991Z,1007.57
2017-07-07T10:38:48.986Z,1007.69
2017-07-07T10:39:49.084Z,1007.66
2017-07-07T10:40:38.159Z,1007.58
2017-07-07T10:41:27.174Z,1007.60
2017-07-07T10:42:16.459Z,1007.76
2017-07-07T10:43:05.370Z,1007.61
2017-07-07T10:43:59.439Z,1007.68
2017-07-07T10:44:59.613Z,1007.84
2017-07-07T10:45:53.564Z,1007.94
2017-07-07T10:46:48.697Z,1007.85
2017-07-07T10:47:43.857Z,1007.69
2017-07-07T10:48:33.003Z,1007.71
2017-07-07T10:49:33.948Z,1007.71
2017-07-07T10:50:22.113Z,1007.59
2017-07-07T10:51:11.259Z,1007.52
2017-07-07T10:52:05.282Z,1007.61
2017-07-07T10:52:53.440Z,1007.63
2017-07-07T10:53:41.536Z,1007.57
2017-07-07T10:54:35.551Z,1007.55